This is the latest recevied weather packets stored in our database for station/object DF2AP-13. If no packets are shown the sender has not sent any weather packets the latest 10 day(s).
| Time | Temp. | Humidity | Pressure | Rain* | Wind** | Luminosity | Snow |
|---|---|---|---|---|---|---|---|
| 1777435675 | 1.67° C | 65% | 1028.6 hPa | - | - | - | - |
| 1777435074 | 1.67° C | 64% | 1028.5 hPa | - | - | - | - |
| 1777434474 | 2.22° C | 63% | 1028.3 hPa | - | - | - | - |
| 1777430274 | 3.89° C | 57% | 1027.7 hPa | - | - | - | - |
| 1777426674 | 2.78° C | 63% | 1028.2 hPa | - | - | - | - |
| 1777423074 | 2.22° C | 63% | 1028.2 hPa | - | - | - | - |
| 1777390074 | 16.11° C | 35% | 1023.6 hPa | - | - | - | - |
| 1777388874 | 17.22° C | 33% | 1023.7 hPa | - | - | - | - |
| 1777387074 | 16.67° C | 36% | 1023.8 hPa | - | - | - | - |
| 1777386474 | 16.67° C | 36% | 1023.8 hPa | - | - | - | - |
| 1777385274 | 16.67° C | 38% | 1024 hPa | - | - | - | - |
| 1777384074 | 16.67° C | 35% | 1024.2 hPa | - | - | - | - |
| 1777383474 | 16.67° C | 38% | 1024.1 hPa | - | - | - | - |
| 1777382874 | 16.67° C | 39% | 1024 hPa | - | - | - | - |
| 1777381674 | 16.67° C | 38% | 1024.2 hPa | - | - | - | - |
| 1777379274 | 15.56° C | 44% | 1024.4 hPa | - | - | - | - |
| 1777378674 | 15.56° C | 43% | 1024.3 hPa | - | - | - | - |
| 1777375674 | 16.11° C | 44% | 1024.2 hPa | - | - | - | - |
| 1777375074 | 15.56° C | 44% | 1024.3 hPa | - | - | - | - |
| 1777373874 | 14.44° C | 46% | 1024.5 hPa | - | - | - | - |
| 1777372674 | 15° C | 46% | 1024.5 hPa | - | - | - | - |
| 1777372074 | 15° C | 48% | 1024.6 hPa | - | - | - | - |
| 1777371474 | 14.44° C | 49% | 1024.7 hPa | - | - | - | - |
| 1777370874 | 13.89° C | 48% | 1024.9 hPa | - | - | - | - |
| 1777370274 | 13.33° C | 48% | 1025 hPa | - | - | - | - |
* Rain since midnight (hover to see other rain measurements)
** Current wind speed in m/s (hover to see current wind gust speed)